Terminal Aerodrome Forecast
Issued by NWS

Home | Current Version | Previous Version | Graphics & Text | Print | Product List | Glossary On
Versions: 1 2 3 4 5 6 7 8 9 10 11 12 13 14 15 16 17 18 19 20
000
FTUS43 KMPX 191700
TAFRNH
TAF
KRNH 191738Z 1918/2018 31007KT P6SM VCSH SCT025 OVC035
      TEMPO 1919/1923 P6SM -SHRA BKN020 OVC030
     FM200000 36004KT 6SM BR SCT100 SCT200
     FM200600 VRB02KT 4SM BR SCT003 SCT200
     FM200800 00000KT 2SM BR SCT001
      TEMPO 2008/2012 1/2SM FG BKN001
     FM201400 09005KT P6SM SCT050=

USA.gov is the U.S. government's official web portal to all federal, state and local government web resources and services.